createdAt,value
2022-09-29T00:00:38.117Z,97.73
2022-09-29T00:03:05.848Z,98.18
2022-09-29T00:05:32.563Z,98.10
2022-09-29T00:07:59.434Z,98.32
2022-09-29T00:10:26.061Z,98.36
2022-09-29T00:12:52.627Z,98.51
2022-09-29T00:15:19.317Z,98.57
2022-09-29T00:18:09.280Z,98.27
2022-09-29T00:20:32.817Z,98.07
2022-09-29T00:22:59.454Z,98.47
2022-09-29T00:25:26.991Z,98.25
2022-09-29T00:27:56.088Z,98.53
2022-09-29T00:30:22.668Z,98.27
2022-09-29T00:32:49.230Z,98.50
2022-09-29T00:35:19.721Z,98.55
2022-09-29T00:37:46.840Z,98.26
2022-09-29T00:40:13.427Z,98.22
2022-09-29T00:42:40.804Z,98.41
2022-09-29T00:45:36.705Z,98.52
2022-09-29T00:48:07.959Z,98.63
2022-09-29T00:50:43.585Z,98.47
2022-09-29T00:53:15.598Z,98.54
2022-09-29T00:55:51.187Z,98.40
2022-09-29T00:58:44.244Z,97.95
2022-09-29T01:01:13.303Z,98.41
2022-09-29T01:03:44.519Z,98.45
2022-09-29T01:06:17.624Z,98.71
2022-09-29T01:08:56.875Z,98.82
2022-09-29T01:11:25.035Z,98.41
2022-09-29T01:13:54.704Z,98.23
2022-09-29T01:16:21.575Z,98.33
2022-09-29T01:18:48.534Z,98.89
2022-09-29T01:21:50.262Z,98.89
2022-09-29T01:24:42.574Z,98.60
2022-09-29T01:27:32.784Z,98.29
2022-09-29T01:30:05.083Z,98.63
2022-09-29T01:32:53.286Z,98.63
2022-09-29T01:35:38.047Z,98.65
2022-09-29T01:38:46.863Z,98.63
2022-09-29T01:41:40.757Z,98.49
2022-09-29T01:44:33.058Z,98.53
2022-09-29T01:47:24.205Z,98.62
2022-09-29T01:49:59.901Z,98.49
2022-09-29T01:52:33.412Z,98.48
2022-09-29T01:55:10.746Z,98.47
2022-09-29T01:57:48.187Z,98.14
2022-09-29T02:00:17.324Z,98.28
2022-09-29T02:02:57.076Z,97.97
2022-09-29T02:05:38.556Z,98.20
2022-09-29T02:08:16.103Z,98.15
2022-09-29T02:11:08.014Z,98.68
2022-09-29T02:13:46.458Z,98.34
2022-09-29T02:16:16.762Z,98.35
2022-09-29T02:19:08.749Z,98.28
2022-09-29T02:21:35.420Z,98.52
2022-09-29T02:24:01.997Z,98.39
2022-09-29T02:26:35.884Z,98.40
2022-09-29T02:29:06.917Z,98.19
2022-09-29T02:31:36.017Z,98.40
2022-09-29T02:34:05.138Z,98.22
2022-09-29T02:36:57.173Z,98.57
2022-09-29T02:39:43.698Z,97.91
2022-09-29T02:42:49.512Z,98.33
2022-09-29T02:45:25.211Z,98.27
2022-09-29T02:48:09.953Z,97.96
2022-09-29T02:50:44.207Z,98.59
2022-09-29T02:53:53.095Z,98.50
2022-09-29T02:56:28.438Z,98.52
2022-09-29T02:59:40.820Z,98.62
2022-09-29T03:02:08.244Z,98.57
2022-09-29T03:04:34.960Z,98.42
2022-09-29T03:07:01.526Z,98.50
2022-09-29T03:09:29.236Z,98.47
2022-09-29T03:11:55.793Z,98.96
2022-09-29T03:14:22.352Z,98.44
2022-09-29T03:16:48.971Z,98.60
2022-09-29T03:19:15.652Z,98.45
2022-09-29T03:21:42.250Z,98.68
2022-09-29T03:24:08.862Z,98.64
2022-09-29T03:26:36.096Z,98.85
2022-09-29T03:29:03.527Z,98.78
2022-09-29T03:31:30.978Z,98.70
2022-09-29T03:33:57.610Z,98.50
2022-09-29T03:36:24.220Z,98.70
2022-09-29T03:38:51.591Z,98.14
2022-09-29T03:41:18.249Z,98.75
2022-09-29T03:43:44.844Z,98.56
2022-09-29T03:46:12.344Z,98.45
2022-09-29T03:48:39.364Z,98.52
2022-09-29T03:51:07.071Z,98.68
2022-09-29T03:53:39.029Z,98.26
2022-09-29T03:56:05.851Z,98.62
2022-09-29T03:58:32.483Z,97.81
2022-09-29T04:01:00.359Z,98.52
2022-09-29T04:03:27.722Z,98.25
2022-09-29T04:05:54.307Z,97.94
2022-09-29T04:08:21.716Z,97.97
2022-09-29T04:10:48.402Z,97.90
2022-09-29T04:13:19.789Z,98.44
2022-09-29T04:15:46.610Z,98.32
2022-09-29T04:18:13.193Z,97.96
2022-09-29T04:20:41.029Z,97.72
2022-09-29T04:23:10.026Z,97.77
2022-09-29T04:25:39.859Z,97.32
2022-09-29T04:28:06.462Z,97.56
2022-09-29T04:30:34.357Z,97.42
2022-09-29T04:33:00.975Z,97.13
2022-09-29T04:35:27.631Z,97.33
2022-09-29T04:38:03.197Z,96.86
2022-09-29T04:40:29.821Z,96.87
2022-09-29T04:42:56.456Z,96.72
2022-09-29T04:45:23.373Z,96.57
2022-09-29T04:47:49.927Z,96.21
2022-09-29T04:50:16.550Z,96.73
2022-09-29T04:52:45.304Z,96.83
2022-09-29T04:55:12.689Z,96.72
2022-09-29T04:57:41.273Z,96.36
2022-09-29T05:00:08.920Z,96.45
2022-09-29T05:02:36.089Z,96.46
2022-09-29T05:05:03.063Z,96.05
2022-09-29T05:07:30.321Z,96.09
2022-09-29T05:09:57.351Z,96.07
2022-09-29T05:12:24.022Z,96.28
2022-09-29T05:14:51.454Z,96.39
2022-09-29T05:17:18.106Z,96.75
2022-09-29T05:19:44.675Z,96.23
2022-09-29T05:22:11.366Z,96.10
2022-09-29T05:24:40.655Z,96.24
2022-09-29T05:27:07.317Z,96.52
2022-09-29T05:29:33.903Z,96.41
2022-09-29T05:32:00.664Z,96.43
2022-09-29T05:34:27.239Z,96.23
2022-09-29T05:36:54.462Z,95.80
2022-09-29T05:39:21.304Z,96.21
2022-09-29T05:41:48.413Z,95.97
2022-09-29T05:44:18.034Z,96.44
2022-09-29T05:46:44.652Z,96.11
2022-09-29T05:49:11.247Z,96.11
2022-09-29T05:51:38.703Z,96.10
2022-09-29T05:54:05.919Z,96.26
2022-09-29T05:56:32.541Z,95.73
2022-09-29T05:59:00.395Z,94.86
2022-09-29T06:01:27.639Z,94.34
2022-09-29T06:03:55.373Z,94.48
2022-09-29T06:06:28.518Z,94.38
2022-09-29T06:08:57.593Z,94.80
2022-09-29T06:11:27.631Z,94.88
2022-09-29T06:13:55.548Z,95.18
2022-09-29T06:16:25.143Z,94.79
2022-09-29T06:18:52.764Z,95.23
2022-09-29T06:21:26.798Z,95.22
2022-09-29T06:23:57.652Z,95.23
2022-09-29T06:26:26.489Z,94.45
2022-09-29T06:28:56.087Z,93.93
2022-09-29T06:31:26.292Z,92.87
2022-09-29T06:33:53.238Z,92.29
2022-09-29T06:36:43.049Z,92.57
2022-09-29T06:39:12.152Z,92.46
2022-09-29T06:41:38.815Z,92.12
2022-09-29T06:44:05.536Z,92.56
2022-09-29T06:46:32.675Z,92.95
2022-09-29T06:48:59.244Z,93.09
2022-09-29T06:51:35.407Z,92.34
2022-09-29T06:54:11.662Z,92.71
2022-09-29T06:56:39.556Z,92.16
2022-09-29T06:59:06.941Z,91.69
2022-09-29T07:01:34.058Z,91.46
2022-09-29T07:04:02.835Z,91.81
2022-09-29T07:06:30.443Z,91.00
2022-09-29T07:08:59.078Z,90.56
2022-09-29T07:11:26.580Z,90.74
2022-09-29T07:13:54.897Z,90.34
2022-09-29T07:16:25.449Z,89.81
2022-09-29T07:18:53.842Z,89.39
2022-09-29T07:21:22.231Z,89.35
2022-09-29T07:23:49.730Z,89.37
2022-09-29T07:26:18.465Z,88.75
2022-09-29T07:28:46.037Z,88.72
2022-09-29T07:31:16.529Z,88.61
2022-09-29T07:33:49.717Z,88.12
2022-09-29T07:36:18.678Z,88.35
2022-09-29T07:38:50.004Z,88.68
2022-09-29T07:41:18.674Z,88.00
2022-09-29T07:43:45.657Z,88.20
2022-09-29T07:46:12.677Z,88.30
2022-09-29T07:48:39.956Z,89.12
2022-09-29T07:51:20.243Z,89.10
2022-09-29T07:53:47.629Z,88.75
2022-09-29T07:56:18.541Z,88.18
2022-09-29T07:58:46.657Z,87.23
2022-09-29T08:01:16.205Z,86.91
2022-09-29T08:03:54.487Z,86.53
2022-09-29T08:06:23.516Z,86.41
2022-09-29T08:09:02.452Z,85.38
2022-09-29T08:11:32.992Z,85.13
2022-09-29T08:14:00.795Z,84.22
2022-09-29T08:16:27.610Z,83.14
2022-09-29T08:18:54.745Z,81.66
2022-09-29T08:21:21.386Z,79.88
2022-09-29T08:23:48.039Z,78.04
2022-09-29T08:26:17.510Z,77.59
2022-09-29T08:28:45.516Z,76.10
2022-09-29T08:31:16.946Z,74.56
2022-09-29T08:33:43.829Z,73.86
2022-09-29T08:36:16.333Z,74.40
2022-09-29T08:38:47.400Z,75.11
2022-09-29T08:41:23.043Z,74.00
2022-09-29T08:43:52.650Z,75.26
2022-09-29T08:46:35.207Z,75.21
2022-09-29T08:49:11.365Z,75.08
2022-09-29T08:51:47.397Z,75.36
2022-09-29T08:54:37.372Z,74.42
2022-09-29T08:57:07.640Z,73.08
2022-09-29T08:59:34.460Z,73.23
2022-09-29T09:02:13.324Z,73.06
2022-09-29T09:05:21.819Z,74.13
2022-09-29T09:08:00.461Z,75.22
2022-09-29T09:10:47.931Z,76.19
2022-09-29T09:13:19.243Z,76.85
2022-09-29T09:15:57.106Z,77.23
2022-09-29T09:21:52.133Z,78.63
2022-09-29T09:24:57.662Z,79.97
2022-09-29T09:27:40.347Z,80.12
2022-09-29T09:30:14.703Z,79.43
2022-09-29T09:32:50.879Z,79.24
2022-09-29T09:35:32.502Z,79.33
2022-09-29T09:38:05.812Z,79.53
2022-09-29T09:40:54.776Z,79.88
2022-09-29T09:43:34.090Z,79.63
2022-09-29T09:46:28.845Z,79.70
2022-09-29T09:49:18.972Z,79.98
2022-09-29T09:51:45.750Z,80.83
2022-09-29T09:54:28.063Z,81.63
2022-09-29T09:57:19.097Z,82.37
2022-09-29T10:00:12.908Z,82.95
2022-09-29T10:02:55.528Z,82.91
2022-09-29T10:05:27.081Z,83.06
2022-09-29T10:07:54.660Z,83.06
2022-09-29T10:10:24.066Z,83.52
2022-09-29T10:13:03.570Z,83.49
2022-09-29T10:15:56.955Z,83.31
2022-09-29T10:18:29.153Z,83.22
2022-09-29T10:20:55.702Z,83.52
2022-09-29T10:23:33.464Z,83.74
2022-09-29T10:26:10.443Z,84.16
2022-09-29T10:28:43.070Z,84.24
2022-09-29T10:31:49.432Z,84.31
2022-09-29T10:34:17.958Z,84.16
2022-09-29T10:36:54.574Z,84.03
2022-09-29T10:39:45.013Z,83.78
2022-09-29T10:42:31.432Z,84.10
2022-09-29T10:45:18.167Z,84.10
2022-09-29T10:47:48.914Z,84.43
2022-09-29T10:50:24.203Z,84.57
2022-09-29T10:52:52.947Z,84.30
2022-09-29T10:55:23.053Z,84.40
2022-09-29T10:57:51.298Z,84.83
2022-09-29T11:00:32.775Z,85.24
2022-09-29T11:03:23.033Z,85.93
2022-09-29T11:06:13.081Z,84.86
2022-09-29T11:09:26.099Z,83.72
2022-09-29T11:12:00.065Z,82.62
2022-09-29T11:14:46.267Z,83.06
2022-09-29T11:17:23.686Z,82.64
2022-09-29T11:19:56.138Z,82.77
2022-09-29T11:22:59.341Z,82.00
2022-09-29T11:25:39.817Z,81.34
2022-09-29T11:28:28.921Z,81.89
2022-09-29T11:31:41.431Z,82.32
2022-09-29T11:34:52.148Z,81.85
2022-09-29T11:37:54.264Z,82.42
2022-09-29T11:40:48.694Z,82.65
2022-09-29T11:43:41.799Z,82.25
2022-09-29T11:46:17.841Z,81.59
2022-09-29T11:49:05.614Z,81.29
2022-09-29T11:51:50.020Z,81.53
2022-09-29T11:54:25.248Z,81.93
2022-09-29T11:57:03.736Z,82.72
2022-09-29T11:59:57.448Z,83.00
2022-09-29T12:03:00.012Z,82.89
2022-09-29T12:05:27.223Z,82.34
2022-09-29T12:08:13.458Z,81.72
2022-09-29T12:11:23.674Z,82.39
2022-09-29T12:14:05.496Z,82.82
2022-09-29T12:16:40.367Z,81.95
2022-09-29T12:19:16.572Z,82.09
2022-09-29T12:21:52.032Z,81.61
2022-09-29T12:24:43.063Z,81.79
2022-09-29T12:27:26.247Z,82.56
2022-09-29T12:30:04.330Z,83.23
2022-09-29T12:32:33.825Z,83.52
2022-09-29T12:35:12.677Z,84.45
2022-09-29T12:37:48.983Z,84.59
2022-09-29T12:40:24.723Z,85.18
2022-09-29T12:43:10.741Z,85.69
2022-09-29T12:45:48.435Z,85.69
2022-09-29T12:48:15.247Z,85.78
2022-09-29T12:50:51.419Z,86.06
2022-09-29T12:53:32.298Z,86.37
2022-09-29T12:56:05.786Z,86.87
2022-09-29T12:58:47.683Z,87.35
2022-09-29T13:01:31.969Z,87.43
2022-09-29T13:04:27.155Z,87.42
2022-09-29T13:07:11.934Z,87.27
2022-09-29T13:09:39.415Z,88.00
2022-09-29T13:12:40.218Z,87.90
2022-09-29T13:15:26.265Z,87.88
2022-09-29T13:17:58.752Z,87.70
2022-09-29T13:21:04.675Z,87.71
2022-09-29T13:23:52.642Z,87.37
2022-09-29T13:26:43.512Z,87.79
2022-09-29T13:29:16.064Z,87.38
2022-09-29T13:31:45.881Z,87.34
2022-09-29T13:34:22.565Z,87.83
2022-09-29T13:36:51.211Z,87.94
2022-09-29T13:39:23.055Z,87.81
2022-09-29T13:41:58.883Z,87.61
2022-09-29T13:44:29.333Z,87.70
2022-09-29T13:46:57.259Z,87.65
2022-09-29T13:49:30.591Z,87.62
2022-09-29T13:51:58.244Z,87.55
2022-09-29T13:54:30.842Z,87.06
2022-09-29T13:57:12.702Z,87.33
2022-09-29T13:59:44.847Z,87.36
2022-09-29T14:02:49.836Z,87.44
2022-09-29T14:05:22.680Z,87.47
2022-09-29T14:08:36.114Z,88.05
2022-09-29T14:11:32.244Z,88.30
2022-09-29T14:14:10.129Z,89.24
2022-09-29T14:16:49.798Z,88.87
2022-09-29T14:19:34.905Z,86.46
2022-09-29T14:22:04.034Z,85.22
2022-09-29T14:24:44.163Z,85.32
2022-09-29T14:27:17.808Z,85.96
2022-09-29T14:30:11.862Z,86.83
2022-09-29T14:33:01.796Z,86.80
2022-09-29T14:35:33.208Z,86.60
2022-09-29T14:38:10.849Z,86.52
2022-09-29T14:40:39.115Z,87.19
2022-09-29T14:43:16.611Z,87.80
2022-09-29T14:46:37.314Z,88.50
2022-09-29T14:49:40.002Z,89.18
2022-09-29T14:52:43.096Z,89.81
2022-09-29T14:55:20.687Z,90.08
2022-09-29T14:58:06.525Z,90.35
2022-09-29T15:01:09.524Z,91.05
2022-09-29T15:03:47.251Z,91.09
2022-09-29T15:06:14.139Z,91.72
2022-09-29T15:08:42.940Z,91.51
2022-09-29T15:11:39.312Z,91.98
2022-09-29T15:14:21.061Z,92.34
2022-09-29T15:17:09.526Z,92.64
2022-09-29T15:19:57.865Z,92.95
2022-09-29T15:22:54.286Z,92.87
2022-09-29T15:25:30.580Z,93.04
2022-09-29T15:28:13.312Z,93.48
2022-09-29T15:30:40.493Z,93.39
2022-09-29T15:35:45.570Z,94.60
2022-09-29T15:38:32.546Z,95.64
2022-09-29T15:41:14.285Z,96.21
2022-09-29T15:43:52.887Z,96.84
2022-09-29T15:46:26.238Z,96.58
2022-09-29T15:49:13.114Z,96.92
2022-09-29T15:51:42.763Z,96.73
2022-09-29T15:54:12.841Z,96.37
2022-09-29T15:56:59.629Z,96.48
2022-09-29T15:59:43.475Z,96.41
2022-09-29T16:02:38.171Z,96.40
2022-09-29T16:05:15.730Z,96.26
2022-09-29T16:07:51.034Z,96.48
2022-09-29T16:10:23.485Z,96.64
2022-09-29T16:13:00.375Z,96.95
2022-09-29T16:15:34.342Z,96.71
2022-09-29T16:18:11.651Z,96.67
2022-09-29T16:20:42.515Z,96.65
2022-09-29T16:23:25.093Z,96.79
2022-09-29T16:26:08.893Z,96.71
2022-09-29T16:28:42.017Z,96.48
2022-09-29T16:31:22.575Z,96.46
2022-09-29T16:33:57.211Z,96.52
2022-09-29T16:36:34.540Z,96.62
2022-09-29T16:39:06.690Z,96.54
2022-09-29T16:41:36.874Z,96.47
2022-09-29T16:44:32.117Z,96.76
2022-09-29T16:47:10.686Z,96.65
2022-09-29T16:49:49.285Z,96.63
2022-09-29T16:52:27.097Z,96.36
2022-09-29T16:55:06.757Z,96.22
2022-09-29T16:57:34.697Z,96.11
2022-09-29T17:00:08.648Z,96.39
2022-09-29T17:02:38.027Z,96.63
2022-09-29T17:05:05.316Z,96.68
2022-09-29T17:07:34.964Z,96.45
2022-09-29T17:10:02.216Z,96.48
2022-09-29T17:12:30.613Z,96.68
2022-09-29T17:17:46.385Z,96.73
2022-09-29T17:20:18.436Z,96.84
2022-09-29T17:22:46.136Z,96.96
2022-09-29T17:25:14.033Z,97.06
2022-09-29T17:30:55.609Z,96.83
2022-09-29T17:33:23.463Z,96.67
2022-09-29T17:35:55.145Z,96.88
2022-09-29T17:38:22.804Z,97.14
2022-09-29T17:41:04.576Z,97.85
2022-09-29T17:43:31.900Z,97.98
2022-09-29T17:46:00.831Z,97.65
2022-09-29T17:48:34.029Z,97.94
2022-09-29T17:51:00.752Z,97.82
2022-09-29T17:53:27.669Z,97.92
2022-09-29T17:55:57.508Z,98.32
2022-09-29T17:58:24.880Z,98.27
2022-09-29T18:00:54.055Z,98.47
2022-09-29T18:03:22.948Z,98.21
2022-09-29T18:05:56.979Z,98.21
2022-09-29T18:08:26.338Z,98.10
2022-09-29T18:11:01.005Z,97.89
2022-09-29T18:13:31.447Z,97.80
2022-09-29T18:15:59.626Z,97.54
2022-09-29T18:18:27.024Z,97.13
2022-09-29T18:20:53.894Z,97.13
2022-09-29T18:23:23.259Z,96.83
2022-09-29T18:25:52.002Z,96.33
2022-09-29T18:28:20.870Z,96.55
2022-09-29T18:31:15.304Z,96.40
2022-09-29T18:33:42.149Z,96.36
2022-09-29T18:36:10.386Z,95.99
2022-09-29T18:38:37.211Z,96.05
2022-09-29T18:41:03.973Z,96.39
2022-09-29T18:43:30.942Z,96.58
2022-09-29T18:46:41.505Z,96.59
2022-09-29T18:49:08.406Z,96.74
2022-09-29T18:51:35.163Z,96.51
2022-09-29T18:54:04.113Z,96.64
2022-09-29T18:56:31.159Z,97.34
2022-09-29T18:58:58.113Z,97.48
2022-09-29T19:01:30.875Z,97.40
2022-09-29T19:03:57.686Z,97.94
2022-09-29T19:06:25.003Z,97.96
2022-09-29T19:08:54.827Z,98.10
2022-09-29T19:11:25.407Z,98.32
2022-09-29T19:13:55.943Z,98.43
2022-09-29T19:16:23.958Z,98.56
2022-09-29T19:18:50.760Z,99.25
2022-09-29T19:21:18.066Z,99.15
2022-09-29T19:23:55.666Z,99.44
2022-09-29T19:26:23.527Z,99.90
2022-09-29T19:28:50.840Z,99.84
2022-09-29T19:31:23.693Z,99.50
2022-09-29T19:33:51.868Z,99.40
2022-09-29T19:36:21.666Z,99.36
2022-09-29T19:38:48.406Z,98.51
2022-09-29T19:41:23.004Z,99.13
2022-09-29T19:43:50.411Z,98.64
2022-09-29T19:46:19.365Z,98.87
2022-09-29T19:48:46.269Z,99.17
2022-09-29T19:51:34.264Z,99.13
2022-09-29T19:54:16.036Z,99.20
2022-09-29T19:56:49.089Z,98.87
2022-09-29T19:59:20.718Z,98.77
2022-09-29T20:01:50.345Z,99.38
2022-09-29T20:04:19.480Z,99.51
2022-09-29T20:06:47.036Z,99.59
2022-09-29T20:09:14.574Z,99.91
2022-09-29T20:11:41.634Z,100.00
2022-09-29T20:14:12.316Z,100.00
2022-09-29T20:16:41.946Z,100.00
2022-09-29T20:19:12.146Z,99.92
2022-09-29T20:21:40.563Z,100.00
2022-09-29T20:24:07.387Z,100.00
2022-09-29T20:26:37.022Z,100.00
2022-09-29T20:29:06.066Z,100.00
2022-09-29T20:31:34.870Z,100.00
2022-09-29T20:34:02.052Z,100.00
2022-09-29T20:36:28.843Z,100.00
2022-09-29T20:38:55.588Z,100.00
2022-09-29T20:41:22.598Z,100.00
2022-09-29T20:43:53.112Z,100.00
2022-09-29T20:46:21.614Z,100.00
2022-09-29T20:48:55.555Z,100.00
2022-09-29T20:51:24.200Z,99.49
2022-09-29T20:53:58.995Z,99.58
2022-09-29T20:56:31.607Z,99.77
2022-09-29T20:59:01.834Z,99.96
2022-09-29T21:01:30.830Z,100.00
2022-09-29T21:04:00.170Z,99.93
2022-09-29T21:06:32.506Z,100.00
2022-09-29T21:09:00.016Z,99.95
2022-09-29T21:11:27.029Z,100.00
2022-09-29T21:13:58.599Z,99.77
2022-09-29T21:16:25.775Z,100.00
2022-09-29T21:18:55.612Z,100.00
2022-09-29T21:21:22.893Z,100.00
2022-09-29T21:23:50.710Z,100.00
2022-09-29T21:26:24.666Z,100.00
2022-09-29T21:28:54.439Z,100.00
2022-09-29T21:31:27.195Z,100.00
2022-09-29T21:33:58.034Z,100.00
2022-09-29T21:36:26.823Z,100.00
2022-09-29T21:38:54.888Z,100.00
2022-09-29T21:41:27.532Z,100.00
2022-09-29T21:43:56.728Z,100.00
2022-09-29T21:46:26.507Z,100.00
2022-09-29T21:48:55.757Z,100.00
2022-09-29T21:51:31.440Z,100.00
2022-09-29T21:54:01.438Z,100.00
2022-09-29T21:56:30.550Z,99.91
2022-09-29T21:58:58.348Z,99.89
2022-09-29T22:01:26.562Z,99.69
2022-09-29T22:03:55.637Z,99.29
2022-09-29T22:06:24.977Z,99.65
2022-09-29T22:08:52.295Z,99.67
2022-09-29T22:11:21.802Z,98.97
2022-09-29T22:13:53.182Z,99.53
2022-09-29T22:16:21.931Z,99.63
2022-09-29T22:19:05.937Z,99.73
2022-09-29T22:21:36.196Z,99.62
2022-09-29T22:24:03.783Z,100.00
2022-09-29T22:26:31.971Z,99.75
2022-09-29T22:29:02.215Z,99.72
2022-09-29T22:31:30.435Z,99.82
2022-09-29T22:34:00.175Z,100.00
2022-09-29T22:36:30.981Z,99.84
2022-09-29T22:38:57.713Z,100.00
2022-09-29T22:41:24.405Z,100.00
2022-09-29T22:43:54.160Z,100.00
2022-09-29T22:46:22.377Z,100.00
2022-09-29T22:48:49.042Z,100.00
2022-09-29T22:51:15.927Z,100.00
2022-09-29T22:53:43.077Z,100.00
2022-09-29T22:56:12.979Z,100.00
2022-09-29T22:58:42.211Z,100.00
2022-09-29T23:01:13.686Z,100.00
2022-09-29T23:03:41.948Z,100.00
2022-09-29T23:06:09.239Z,100.00
2022-09-29T23:08:36.886Z,100.00
2022-09-29T23:11:06.266Z,100.00
2022-09-29T23:13:37.689Z,100.00
2022-09-29T23:16:10.962Z,100.00
2022-09-29T23:18:44.212Z,100.00
2022-09-29T23:21:20.177Z,100.00
2022-09-29T23:24:13.294Z,100.00
2022-09-29T23:26:40.398Z,100.00
2022-09-29T23:29:07.878Z,100.00
2022-09-29T23:31:35.439Z,100.00
2022-09-29T23:34:02.226Z,100.00
2022-09-29T23:36:31.257Z,100.00
2022-09-29T23:39:11.852Z,100.00
2022-09-29T23:41:42.402Z,100.00
2022-09-29T23:44:10.504Z,100.00
2022-09-29T23:46:39.802Z,100.00
2022-09-29T23:49:09.847Z,100.00
2022-09-29T23:51:46.974Z,100.00
2022-09-29T23:54:16.240Z,100.00
2022-09-29T23:56:42.841Z,100.00
2022-09-29T23:59:09.897Z,100.00
